createdAt,value
2019-04-26T00:00:58.666Z,0.00
2019-04-26T00:01:58.635Z,0.00
2019-04-26T00:02:58.622Z,0.00
2019-04-26T00:03:58.603Z,0.00
2019-04-26T00:04:58.584Z,0.00
2019-04-26T00:05:58.559Z,0.00
2019-04-26T00:06:58.538Z,0.00
2019-04-26T00:07:58.529Z,0.00
2019-04-26T00:08:58.494Z,0.00
2019-04-26T00:09:58.475Z,0.00
2019-04-26T00:10:58.448Z,0.00
2019-04-26T00:11:58.429Z,0.00
2019-04-26T00:12:58.400Z,0.00
2019-04-26T00:13:58.384Z,0.00
2019-04-26T00:14:58.365Z,0.00
2019-04-26T00:15:58.350Z,0.00
2019-04-26T00:16:58.320Z,0.00
2019-04-26T00:17:58.299Z,0.00
2019-04-26T00:18:58.288Z,0.00
2019-04-26T00:19:58.253Z,0.00
2019-04-26T00:20:58.234Z,0.00
2019-04-26T00:21:58.217Z,0.00
2019-04-26T00:22:58.198Z,0.00
2019-04-26T00:23:58.188Z,0.00
2019-04-26T00:24:58.176Z,0.00
2019-04-26T00:25:58.160Z,0.00
2019-04-26T00:26:58.108Z,0.00
2019-04-26T00:27:58.079Z,0.00
2019-04-26T00:28:58.060Z,0.00
2019-04-26T00:29:58.034Z,0.00
2019-04-26T00:30:58.023Z,0.00
2019-04-26T00:31:58.003Z,0.00
2019-04-26T00:32:58.003Z,0.00
2019-04-26T00:33:57.955Z,0.00
2019-04-26T00:34:57.936Z,0.00
2019-04-26T00:35:57.932Z,0.00
2019-04-26T00:36:57.897Z,0.00
2019-04-26T00:37:57.875Z,0.00
2019-04-26T00:38:57.859Z,0.00
2019-04-26T00:39:57.842Z,0.00
2019-04-26T00:40:57.878Z,0.00
2019-04-26T00:41:57.781Z,0.00
2019-04-26T00:42:57.780Z,0.00
2019-04-26T00:43:57.746Z,0.00
2019-04-26T00:44:57.720Z,0.00
2019-04-26T00:45:57.721Z,0.00
2019-04-26T00:46:57.677Z,0.00
2019-04-26T00:47:57.657Z,0.00
2019-04-26T00:48:57.629Z,0.00
2019-04-26T00:49:57.601Z,0.00
2019-04-26T00:50:57.604Z,0.00
2019-04-26T00:51:57.568Z,0.00
2019-04-26T00:52:57.538Z,0.00
2019-04-26T00:53:57.518Z,0.00
2019-04-26T00:54:57.492Z,0.00
2019-04-26T00:55:57.492Z,0.00
2019-04-26T00:56:57.450Z,0.00
2019-04-26T00:57:57.472Z,0.00
2019-04-26T00:58:57.409Z,0.00
2019-04-26T00:59:57.390Z,0.00
2019-04-26T01:00:57.364Z,0.00
2019-04-26T01:01:57.341Z,0.00
2019-04-26T01:02:57.325Z,0.00
2019-04-26T01:03:57.296Z,0.00
2019-04-26T01:04:57.271Z,0.00
2019-04-26T01:06:00.066Z,0.00
2019-04-26T01:06:57.230Z,0.00
2019-04-26T01:07:57.218Z,0.00
2019-04-26T01:08:57.194Z,0.00
2019-04-26T01:09:57.174Z,0.00
2019-04-26T01:10:57.146Z,0.00
2019-04-26T01:11:57.121Z,0.00
2019-04-26T01:12:57.099Z,0.00
2019-04-26T01:13:57.073Z,0.00
2019-04-26T01:14:57.060Z,0.00
2019-04-26T01:15:57.090Z,0.00
2019-04-26T01:16:57.035Z,0.00
2019-04-26T01:17:57.007Z,0.00
2019-04-26T01:18:56.968Z,0.00
2019-04-26T01:19:56.978Z,0.00
2019-04-26T01:20:56.936Z,0.00
2019-04-26T01:21:56.895Z,0.00
2019-04-26T01:22:56.895Z,0.00
2019-04-26T01:23:56.863Z,0.00
2019-04-26T01:24:56.841Z,0.00
2019-04-26T01:25:56.812Z,0.00
2019-04-26T01:26:56.797Z,0.00
2019-04-26T01:27:56.809Z,0.00
2019-04-26T01:28:56.754Z,0.00
2019-04-26T01:29:56.746Z,0.00
2019-04-26T01:30:56.709Z,0.00
2019-04-26T01:31:56.696Z,0.00
2019-04-26T01:32:56.659Z,0.00
2019-04-26T01:33:56.639Z,0.00
2019-04-26T01:34:56.623Z,0.00
2019-04-26T01:35:56.610Z,0.00
2019-04-26T01:36:56.571Z,0.00
2019-04-26T01:37:56.555Z,0.00
2019-04-26T01:38:56.533Z,0.00
2019-04-26T01:39:56.529Z,0.00
2019-04-26T01:40:56.481Z,0.00
2019-04-26T01:41:56.469Z,0.00
2019-04-26T01:42:56.438Z,0.00
2019-04-26T01:43:56.435Z,0.00
2019-04-26T01:44:56.393Z,0.00
2019-04-26T01:45:56.377Z,0.00
2019-04-26T01:46:56.348Z,0.00
2019-04-26T01:47:56.409Z,0.00
2019-04-26T01:48:56.309Z,0.00
2019-04-26T01:49:56.281Z,0.00
2019-04-26T01:50:56.262Z,0.00
2019-04-26T01:51:56.246Z,0.00
2019-04-26T01:52:56.216Z,0.00
2019-04-26T01:53:56.202Z,0.00
2019-04-26T01:54:56.168Z,0.00
2019-04-26T01:55:56.149Z,0.00
2019-04-26T01:56:56.123Z,0.00
2019-04-26T01:57:56.101Z,0.00
2019-04-26T01:58:56.082Z,0.00
2019-04-26T01:59:56.063Z,0.00
2019-04-26T02:00:56.036Z,0.00
2019-04-26T02:01:56.014Z,0.00
2019-04-26T02:02:55.991Z,0.00
2019-04-26T02:03:55.985Z,0.00
2019-04-26T02:04:55.971Z,0.00
2019-04-26T02:05:55.930Z,0.00
2019-04-26T02:06:55.902Z,0.00
2019-04-26T02:07:55.883Z,0.00
2019-04-26T02:08:55.863Z,0.00
2019-04-26T02:09:55.847Z,0.00
2019-04-26T02:10:55.815Z,0.00
2019-04-26T02:11:55.805Z,0.00
2019-04-26T02:12:55.773Z,0.00
2019-04-26T02:13:55.752Z,0.00
2019-04-26T02:14:55.725Z,0.00
2019-04-26T02:15:55.707Z,0.00
2019-04-26T02:16:55.680Z,0.00
2019-04-26T02:17:55.664Z,0.00
2019-04-26T02:18:55.632Z,0.00
2019-04-26T02:19:55.617Z,0.00
2019-04-26T02:20:55.594Z,0.00
2019-04-26T02:21:55.576Z,0.00
2019-04-26T02:22:55.549Z,0.00
2019-04-26T02:23:55.530Z,0.00
2019-04-26T02:24:55.504Z,0.00
2019-04-26T02:25:55.478Z,0.00
2019-04-26T02:26:55.456Z,0.00
2019-04-26T02:27:55.438Z,0.00
2019-04-26T02:28:55.423Z,0.00
2019-04-26T02:29:55.398Z,0.00
2019-04-26T02:30:55.366Z,0.00
2019-04-26T02:31:55.350Z,0.00
2019-04-26T02:32:55.319Z,0.00
2019-04-26T02:33:55.296Z,0.00
2019-04-26T02:34:55.277Z,0.00
2019-04-26T02:35:55.258Z,0.00
2019-04-26T02:36:58.273Z,0.00
2019-04-26T02:37:55.208Z,0.00
2019-04-26T02:38:55.188Z,0.00
2019-04-26T02:39:55.168Z,0.00
2019-04-26T02:40:55.138Z,0.00
2019-04-26T02:41:55.126Z,0.00
2019-04-26T02:42:55.096Z,0.00
2019-04-26T02:43:55.083Z,0.00
2019-04-26T02:44:55.059Z,0.00
2019-04-26T02:45:55.032Z,0.00
2019-04-26T02:46:55.014Z,0.00
2019-04-26T02:47:54.981Z,0.00
2019-04-26T02:48:54.988Z,0.00
2019-04-26T02:49:54.943Z,0.00
2019-04-26T02:50:54.917Z,0.00
2019-04-26T02:51:54.919Z,0.00
2019-04-26T02:52:54.882Z,0.00
2019-04-26T02:53:54.856Z,0.00
2019-04-26T02:54:54.831Z,0.00
2019-04-26T02:55:54.812Z,0.00
2019-04-26T02:56:54.782Z,0.00
2019-04-26T02:57:54.758Z,0.00
2019-04-26T02:58:54.742Z,0.00
2019-04-26T02:59:54.737Z,0.00
2019-04-26T03:00:54.705Z,0.00
2019-04-26T03:01:54.678Z,0.00
2019-04-26T03:02:54.658Z,0.00
2019-04-26T03:03:54.630Z,0.00
2019-04-26T03:04:54.602Z,0.00
2019-04-26T03:05:54.592Z,0.00
2019-04-26T03:07:03.061Z,0.00
2019-04-26T03:07:54.535Z,0.00
2019-04-26T03:08:54.519Z,0.00
2019-04-26T03:09:54.505Z,0.00
2019-04-26T03:10:54.483Z,0.00
2019-04-26T03:11:54.456Z,0.00
2019-04-26T03:12:54.433Z,0.00
2019-04-26T03:13:54.403Z,0.00
2019-04-26T03:14:54.390Z,0.00
2019-04-26T03:15:54.366Z,0.00
2019-04-26T03:16:54.346Z,0.00
2019-04-26T03:17:54.325Z,0.00
2019-04-26T03:18:54.302Z,0.00
2019-04-26T03:19:54.295Z,0.00
2019-04-26T03:20:54.254Z,0.00
2019-04-26T03:21:54.236Z,0.00
2019-04-26T03:22:54.207Z,0.00
2019-04-26T03:23:58.458Z,0.00
2019-04-26T03:24:54.173Z,0.00
2019-04-26T03:25:54.146Z,0.00
2019-04-26T03:26:54.126Z,0.00
2019-04-26T03:27:54.110Z,0.00
2019-04-26T03:28:54.082Z,0.00
2019-04-26T03:30:16.343Z,0.00
2019-04-26T03:30:54.037Z,0.00
2019-04-26T03:31:55.174Z,0.00
2019-04-26T03:32:54.463Z,0.00
2019-04-26T03:33:55.082Z,0.00
2019-04-26T03:34:55.388Z,0.00
2019-04-26T03:35:57.664Z,0.00
2019-04-26T03:36:53.931Z,0.00
2019-04-26T03:37:53.885Z,0.00
2019-04-26T03:38:53.866Z,0.00
2019-04-26T03:39:53.847Z,0.00
2019-04-26T03:40:53.824Z,0.00
2019-04-26T03:41:53.804Z,0.00
2019-04-26T03:42:53.782Z,0.00
2019-04-26T03:43:53.770Z,0.00
2019-04-26T03:44:53.734Z,0.00
2019-04-26T03:45:53.712Z,0.00
2019-04-26T03:46:53.715Z,0.00
2019-04-26T03:47:53.673Z,0.00
2019-04-26T03:48:53.671Z,0.00
2019-04-26T03:49:54.652Z,0.00
2019-04-26T03:50:53.605Z,0.00
2019-04-26T03:51:53.592Z,0.00
2019-04-26T03:52:53.586Z,0.00
2019-04-26T03:53:53.551Z,0.00
2019-04-26T03:54:53.524Z,0.00
2019-04-26T03:55:53.506Z,0.00
2019-04-26T03:56:53.506Z,0.00
2019-04-26T03:57:53.460Z,0.00
2019-04-26T03:58:53.442Z,0.00
2019-04-26T03:59:53.423Z,0.00
2019-04-26T04:00:53.404Z,0.00
2019-04-26T04:01:53.375Z,0.00
2019-04-26T04:02:53.351Z,0.00
2019-04-26T04:03:53.332Z,0.00
2019-04-26T04:04:53.321Z,0.00
2019-04-26T04:05:53.296Z,0.00
2019-04-26T04:07:03.635Z,0.00
2019-04-26T04:07:53.248Z,0.00
2019-04-26T04:08:53.230Z,0.00
2019-04-26T04:09:53.205Z,0.00
2019-04-26T04:10:53.189Z,5.63
2019-04-26T04:12:10.242Z,5.63
2019-04-26T04:12:53.147Z,5.63
2019-04-26T04:13:53.191Z,5.63
2019-04-26T04:14:53.110Z,5.63
2019-04-26T04:15:53.104Z,5.63
2019-04-26T04:16:53.060Z,5.63
2019-04-26T04:17:53.040Z,5.63
2019-04-26T04:18:54.099Z,5.63
2019-04-26T04:19:53.002Z,5.63
2019-04-26T04:20:52.983Z,5.63
2019-04-26T04:21:52.966Z,5.63
2019-04-26T04:22:52.938Z,5.63
2019-04-26T04:23:52.921Z,11.25
2019-04-26T04:24:52.904Z,11.25
2019-04-26T04:25:52.882Z,11.25
2019-04-26T04:26:52.899Z,11.25
2019-04-26T04:27:52.839Z,11.25
2019-04-26T04:28:52.822Z,16.88
2019-04-26T04:29:55.506Z,16.88
2019-04-26T04:30:52.776Z,16.88
2019-04-26T04:31:52.751Z,16.88
2019-04-26T04:32:52.753Z,16.88
2019-04-26T04:33:52.797Z,22.50
2019-04-26T04:34:52.814Z,22.50
2019-04-26T04:35:52.990Z,22.50
2019-04-26T04:36:53.758Z,22.50
2019-04-26T04:38:08.040Z,28.13
2019-04-26T04:38:53.504Z,28.13
2019-04-26T04:39:53.552Z,33.75
2019-04-26T04:40:53.457Z,33.75
2019-04-26T04:41:53.338Z,39.38
2019-04-26T04:42:52.662Z,39.38
2019-04-26T04:43:53.269Z,39.38
2019-04-26T04:44:52.476Z,39.38
2019-04-26T04:45:53.111Z,39.38
2019-04-26T04:46:53.987Z,39.38
2019-04-26T04:47:54.084Z,45.00
2019-04-26T04:48:52.791Z,45.00
2019-04-26T04:49:52.819Z,45.00
2019-04-26T04:50:52.672Z,45.00
2019-04-26T04:51:52.336Z,39.38
2019-04-26T04:52:52.320Z,39.38
2019-04-26T04:53:52.312Z,45.00
2019-04-26T04:55:05.089Z,45.00
2019-04-26T04:55:52.256Z,45.00
2019-04-26T04:56:52.236Z,45.00
2019-04-26T04:57:52.432Z,45.00
2019-04-26T04:58:52.513Z,45.00
2019-04-26T04:59:52.377Z,45.00
2019-04-26T05:00:52.148Z,45.00
2019-04-26T05:01:52.516Z,50.63
2019-04-26T05:02:52.125Z,50.63
2019-04-26T05:03:53.086Z,56.25
2019-04-26T05:04:53.180Z,56.25
2019-04-26T05:05:54.335Z,56.25
2019-04-26T05:06:53.200Z,56.25
2019-04-26T05:07:52.000Z,56.25
2019-04-26T05:08:53.086Z,50.63
2019-04-26T05:09:51.953Z,56.25
2019-04-26T05:10:52.021Z,56.25
2019-04-26T05:11:52.061Z,56.25
2019-04-26T05:12:52.142Z,56.25
2019-04-26T05:13:52.065Z,56.25
2019-04-26T05:14:52.238Z,61.88
2019-04-26T05:15:52.735Z,67.50
2019-04-26T05:16:52.598Z,73.13
2019-04-26T05:17:51.801Z,78.75
2019-04-26T05:18:52.730Z,84.38
2019-04-26T05:19:52.732Z,90.00
2019-04-26T05:20:51.731Z,95.63
2019-04-26T05:21:51.713Z,95.63
2019-04-26T05:22:51.688Z,90.00
2019-04-26T05:23:51.660Z,90.00
2019-04-26T05:24:51.645Z,84.38
2019-04-26T05:25:51.633Z,78.75
2019-04-26T05:26:51.607Z,78.75
2019-04-26T05:27:51.598Z,84.38
2019-04-26T05:28:51.735Z,90.00
2019-04-26T05:29:52.101Z,95.63
2019-04-26T05:30:52.051Z,106.88
2019-04-26T05:31:52.665Z,112.50
2019-04-26T05:32:52.563Z,118.13
2019-04-26T05:33:52.455Z,123.75
2019-04-26T05:34:52.747Z,123.75
2019-04-26T05:35:51.451Z,123.75
2019-04-26T05:36:51.405Z,118.13
2019-04-26T05:37:51.407Z,118.13
2019-04-26T05:38:51.412Z,118.13
2019-04-26T05:39:51.403Z,118.13
2019-04-26T05:40:51.559Z,112.50
2019-04-26T05:41:51.553Z,112.50
2019-04-26T05:42:51.647Z,112.50
2019-04-26T05:43:51.802Z,106.88
2019-04-26T05:44:51.884Z,101.25
2019-04-26T05:45:51.441Z,101.25
2019-04-26T05:46:51.671Z,106.88
2019-04-26T05:48:06.120Z,106.88
2019-04-26T05:48:51.914Z,112.50
2019-04-26T05:49:51.790Z,112.50
2019-04-26T05:50:51.888Z,106.88
2019-04-26T05:51:52.004Z,101.25
2019-04-26T05:52:51.646Z,101.25
2019-04-26T05:53:51.078Z,95.63
2019-04-26T05:54:52.175Z,84.38
2019-04-26T05:55:52.203Z,78.75
2019-04-26T05:56:51.658Z,78.75
2019-04-26T05:57:51.498Z,84.38
2019-04-26T05:58:51.662Z,78.75
2019-04-26T05:59:52.312Z,78.75
2019-04-26T06:00:52.111Z,73.13
2019-04-26T06:01:52.037Z,73.13
2019-04-26T06:02:51.314Z,73.13
2019-04-26T06:03:51.027Z,73.13
2019-04-26T06:04:51.970Z,67.50
2019-04-26T06:05:50.966Z,61.88
2019-04-26T06:06:51.722Z,56.25
2019-04-26T06:07:50.895Z,50.63
2019-04-26T06:08:51.197Z,50.63
2019-04-26T06:09:51.834Z,50.63
2019-04-26T06:10:51.531Z,50.63
2019-04-26T06:11:51.884Z,56.25
2019-04-26T06:12:51.129Z,61.88
2019-04-26T06:13:52.185Z,73.13
2019-04-26T06:14:51.890Z,78.75
2019-04-26T06:15:51.858Z,90.00
2019-04-26T06:16:51.720Z,90.00
2019-04-26T06:17:51.604Z,90.00
2019-04-26T06:18:51.701Z,84.38
2019-04-26T06:19:51.811Z,84.38
2019-04-26T06:20:51.205Z,90.00
2019-04-26T06:21:52.173Z,101.25
2019-04-26T06:22:53.506Z,106.88
2019-04-26T06:23:52.377Z,112.50
2019-04-26T06:24:50.447Z,112.50
2019-04-26T06:25:50.393Z,112.50
2019-04-26T06:26:50.402Z,112.50
2019-04-26T06:27:50.418Z,112.50
2019-04-26T06:28:50.413Z,118.13
2019-04-26T06:29:50.361Z,129.38
2019-04-26T06:30:50.289Z,123.75
2019-04-26T06:31:50.265Z,118.13
2019-04-26T06:32:56.377Z,118.13
2019-04-26T06:33:50.239Z,123.75
2019-04-26T06:34:50.243Z,135.00
2019-04-26T06:35:50.220Z,146.25
2019-04-26T06:36:50.288Z,157.50
2019-04-26T06:37:50.244Z,174.38
2019-04-26T06:38:50.160Z,185.63
2019-04-26T06:39:50.128Z,185.63
2019-04-26T06:40:50.083Z,191.25
2019-04-26T06:41:50.110Z,185.63
2019-04-26T06:42:50.046Z,185.63
2019-04-26T06:43:50.023Z,180.00
2019-04-26T06:44:50.062Z,191.25
2019-04-26T06:45:49.982Z,191.25
2019-04-26T06:46:49.971Z,180.00
2019-04-26T06:47:50.133Z,168.75
2019-04-26T06:48:49.925Z,151.88
2019-04-26T06:49:49.898Z,146.25
2019-04-26T06:50:49.920Z,146.25
2019-04-26T06:51:49.866Z,151.88
2019-04-26T06:52:49.834Z,157.50
2019-04-26T06:53:49.859Z,168.75
2019-04-26T06:54:49.803Z,168.75
2019-04-26T06:55:49.816Z,157.50
2019-04-26T06:56:49.809Z,135.00
2019-04-26T06:57:49.733Z,118.13
2019-04-26T06:58:49.715Z,106.88
2019-04-26T06:59:49.780Z,101.25
2019-04-26T07:00:49.697Z,118.13
2019-04-26T07:01:49.668Z,129.38
2019-04-26T07:02:49.664Z,129.38
2019-04-26T07:03:49.621Z,129.38
2019-04-26T07:04:49.595Z,129.38
2019-04-26T07:05:49.630Z,129.38
2019-04-26T07:06:49.602Z,129.38
2019-04-26T07:07:49.576Z,129.38
2019-04-26T07:08:57.230Z,135.00
2019-04-26T07:09:49.515Z,146.25
2019-04-26T07:10:49.561Z,140.63
2019-04-26T07:11:49.471Z,151.88
2019-04-26T07:12:49.474Z,151.88
2019-04-26T07:13:49.412Z,168.75
2019-04-26T07:14:49.383Z,185.63
2019-04-26T07:15:49.370Z,191.25
2019-04-26T07:16:49.347Z,202.50
2019-04-26T07:17:49.325Z,208.13
2019-04-26T07:18:49.335Z,225.00
2019-04-26T07:19:49.290Z,236.25
2019-04-26T07:20:49.280Z,247.50
2019-04-26T07:21:49.264Z,253.13
2019-04-26T07:22:49.221Z,253.13
2019-04-26T07:23:49.201Z,241.88
2019-04-26T07:24:49.189Z,225.00
2019-04-26T07:25:49.159Z,208.13
2019-04-26T07:26:49.157Z,180.00
2019-04-26T07:27:49.177Z,135.00
2019-04-26T07:28:49.162Z,112.50
2019-04-26T07:29:49.077Z,168.75
2019-04-26T07:30:49.061Z,208.13
2019-04-26T07:31:49.041Z,225.00
2019-04-26T07:32:49.038Z,230.63
2019-04-26T07:33:48.993Z,230.63
2019-04-26T07:34:48.970Z,225.00
2019-04-26T07:35:48.948Z,219.38
2019-04-26T07:36:48.929Z,219.38
2019-04-26T07:37:48.913Z,225.00
2019-04-26T07:38:48.890Z,219.38
2019-04-26T07:39:48.884Z,202.50
2019-04-26T07:40:48.858Z,208.13
2019-04-26T07:41:51.368Z,219.38
2019-04-26T07:42:48.810Z,253.13
2019-04-26T07:43:48.789Z,303.75
2019-04-26T07:44:48.765Z,371.25
2019-04-26T07:45:48.783Z,427.50
2019-04-26T07:46:48.729Z,472.50
2019-04-26T07:47:48.719Z,511.88
2019-04-26T07:48:48.684Z,568.13
2019-04-26T07:49:48.668Z,613.13
2019-04-26T07:50:48.646Z,646.88
2019-04-26T07:51:48.627Z,669.38
2019-04-26T07:52:48.601Z,691.88
2019-04-26T07:53:48.589Z,697.50
2019-04-26T07:54:48.565Z,720.00
2019-04-26T07:55:48.543Z,725.63
2019-04-26T07:56:48.524Z,663.75
2019-04-26T07:57:48.517Z,573.75
2019-04-26T07:58:48.486Z,478.13
2019-04-26T07:59:48.538Z,405.00
2019-04-26T08:00:48.450Z,354.38
2019-04-26T08:01:48.431Z,326.25
2019-04-26T08:02:48.415Z,315.00
2019-04-26T08:03:48.389Z,309.38
2019-04-26T08:04:48.368Z,309.38
2019-04-26T08:05:48.348Z,303.75
2019-04-26T08:06:48.329Z,298.13
2019-04-26T08:07:48.319Z,303.75
2019-04-26T08:08:48.287Z,343.13
2019-04-26T08:09:59.487Z,393.75
2019-04-26T08:10:48.259Z,461.25
2019-04-26T08:11:48.248Z,506.25
2019-04-26T08:12:48.219Z,534.38
2019-04-26T08:13:48.190Z,551.25
2019-04-26T08:14:48.178Z,556.88
2019-04-26T08:15:48.162Z,556.88
2019-04-26T08:16:48.133Z,556.88
2019-04-26T08:17:48.117Z,540.00
2019-04-26T08:18:48.094Z,545.63
2019-04-26T08:19:48.081Z,556.88
2019-04-26T08:20:48.437Z,579.38
2019-04-26T08:21:49.094Z,596.25
2019-04-26T08:22:48.026Z,579.38
2019-04-26T08:23:47.997Z,540.00
2019-04-26T08:24:47.979Z,489.38
2019-04-26T08:25:47.955Z,438.75
2019-04-26T08:26:47.937Z,433.13
2019-04-26T08:27:47.917Z,455.63
2019-04-26T08:28:48.165Z,472.50
2019-04-26T08:29:47.884Z,495.00
2019-04-26T08:30:47.866Z,489.38
2019-04-26T08:31:47.847Z,438.75
2019-04-26T08:32:47.827Z,371.25
2019-04-26T08:33:48.831Z,348.75
2019-04-26T08:34:47.793Z,331.88
2019-04-26T08:35:48.943Z,315.00
2019-04-26T08:36:47.775Z,326.25
2019-04-26T08:37:47.736Z,348.75
2019-04-26T08:38:48.843Z,337.50
2019-04-26T08:39:51.917Z,337.50
2019-04-26T08:40:47.670Z,309.38
2019-04-26T08:41:47.667Z,303.75
2019-04-26T08:42:47.629Z,320.63
2019-04-26T08:43:47.611Z,348.75
2019-04-26T08:44:47.598Z,371.25
2019-04-26T08:46:01.679Z,376.88
2019-04-26T08:46:47.559Z,388.13
2019-04-26T08:47:50.159Z,382.50
2019-04-26T08:48:47.522Z,382.50
2019-04-26T08:49:47.495Z,393.75
2019-04-26T08:50:47.475Z,376.88
2019-04-26T08:51:47.457Z,388.13
2019-04-26T08:52:47.435Z,376.88
2019-04-26T08:53:47.422Z,410.63
2019-04-26T08:54:47.400Z,444.38
2019-04-26T08:55:47.381Z,472.50
2019-04-26T08:56:47.365Z,466.88
2019-04-26T08:57:47.339Z,427.50
2019-04-26T08:58:47.320Z,416.25
2019-04-26T08:59:47.307Z,433.13
2019-04-26T09:00:47.281Z,427.50
2019-04-26T09:01:47.269Z,433.13
2019-04-26T09:02:47.259Z,433.13
2019-04-26T09:03:47.224Z,438.75
2019-04-26T09:04:47.205Z,455.63
2019-04-26T09:05:49.859Z,444.38
2019-04-26T09:06:47.167Z,421.88
2019-04-26T09:07:47.180Z,421.88
2019-04-26T09:08:47.135Z,433.13
2019-04-26T09:09:56.731Z,427.50
2019-04-26T09:10:47.090Z,438.75
2019-04-26T09:11:58.913Z,450.00
2019-04-26T09:12:47.055Z,461.25
2019-04-26T09:13:49.786Z,455.63
2019-04-26T09:14:47.018Z,461.25
2019-04-26T09:15:46.993Z,461.25
2019-04-26T09:16:50.487Z,450.00
2019-04-26T09:17:46.954Z,450.00
2019-04-26T09:18:52.591Z,461.25
2019-04-26T09:19:46.916Z,472.50
2019-04-26T09:20:46.901Z,466.88
2019-04-26T09:21:47.432Z,450.00
2019-04-26T09:22:46.857Z,427.50
2019-04-26T09:23:50.824Z,421.88
2019-04-26T09:24:46.844Z,433.13
2019-04-26T09:25:58.588Z,450.00
2019-04-26T09:26:48.423Z,466.88
2019-04-26T09:27:46.767Z,438.75
2019-04-26T09:28:46.775Z,528.75
2019-04-26T09:29:46.725Z,624.38
2019-04-26T09:30:47.639Z,686.25
2019-04-26T09:31:50.530Z,731.25
2019-04-26T09:32:46.665Z,765.00
2019-04-26T09:33:46.647Z,793.13
2019-04-26T09:34:46.632Z,810.00
2019-04-26T09:35:46.645Z,804.38
2019-04-26T09:36:46.587Z,759.38
2019-04-26T09:37:46.574Z,708.75
2019-04-26T09:38:46.565Z,703.13
2019-04-26T09:39:46.535Z,680.63
2019-04-26T09:40:46.521Z,652.50
2019-04-26T09:41:46.500Z,624.38
2019-04-26T09:42:46.483Z,596.25
2019-04-26T09:43:46.462Z,579.38
2019-04-26T09:44:46.445Z,579.38
2019-04-26T09:45:48.102Z,579.38
2019-04-26T09:46:48.406Z,585.00
2019-04-26T09:47:46.391Z,585.00
2019-04-26T09:48:46.365Z,590.63
2019-04-26T09:49:46.346Z,573.75
2019-04-26T09:50:46.327Z,545.63
2019-04-26T09:51:46.311Z,534.38
2019-04-26T09:52:46.291Z,472.50
2019-04-26T09:53:46.273Z,483.75
2019-04-26T09:54:46.253Z,562.50
2019-04-26T09:55:46.237Z,630.00
2019-04-26T09:56:46.214Z,585.00
2019-04-26T09:57:46.195Z,618.75
2019-04-26T09:58:46.202Z,579.38
2019-04-26T09:59:46.163Z,556.88
2019-04-26T10:00:48.607Z,517.50
2019-04-26T10:01:46.125Z,511.88
2019-04-26T10:02:46.109Z,500.63
2019-04-26T10:03:46.087Z,489.38
2019-04-26T10:04:46.070Z,511.88
2019-04-26T10:05:46.077Z,528.75
2019-04-26T10:06:46.029Z,506.25
2019-04-26T10:07:46.010Z,483.75
2019-04-26T10:08:47.088Z,489.38
2019-04-26T10:09:45.971Z,517.50
2019-04-26T10:10:45.958Z,545.63
2019-04-26T10:11:45.942Z,590.63
2019-04-26T10:12:45.984Z,585.00
2019-04-26T10:13:45.907Z,562.50
2019-04-26T10:14:46.513Z,500.63
2019-04-26T10:15:45.859Z,500.63
2019-04-26T10:16:45.839Z,489.38
2019-04-26T10:17:46.439Z,478.13
2019-04-26T10:18:45.803Z,500.63
2019-04-26T10:19:45.795Z,556.88
2019-04-26T10:20:45.769Z,585.00
2019-04-26T10:21:45.782Z,523.13
2019-04-26T10:22:45.727Z,472.50
2019-04-26T10:23:45.704Z,416.25
2019-04-26T10:24:45.689Z,326.25
2019-04-26T10:25:47.306Z,298.13
2019-04-26T10:26:45.651Z,354.38
2019-04-26T10:27:45.643Z,461.25
2019-04-26T10:28:46.696Z,528.75
2019-04-26T10:29:45.594Z,528.75
2019-04-26T10:30:45.572Z,556.88
2019-04-26T10:31:47.552Z,568.13
2019-04-26T10:32:45.540Z,540.00
2019-04-26T10:33:45.518Z,528.75
2019-04-26T10:34:47.316Z,506.25
2019-04-26T10:35:45.479Z,500.63
2019-04-26T10:36:45.457Z,478.13
2019-04-26T10:37:48.188Z,478.13
2019-04-26T10:38:45.419Z,472.50
2019-04-26T10:39:45.400Z,478.13
2019-04-26T10:40:45.387Z,478.13
2019-04-26T10:41:45.367Z,489.38
2019-04-26T10:42:45.349Z,478.13
2019-04-26T10:43:45.374Z,483.75
2019-04-26T10:44:45.310Z,489.38
2019-04-26T10:45:51.284Z,483.75
2019-04-26T10:46:54.995Z,483.75
2019-04-26T10:47:45.252Z,478.13
2019-04-26T10:48:45.524Z,489.38
2019-04-26T10:49:45.215Z,511.88
2019-04-26T10:50:45.230Z,545.63
2019-04-26T10:51:45.169Z,540.00
2019-04-26T10:52:49.664Z,534.38
2019-04-26T10:53:45.172Z,523.13
2019-04-26T10:54:46.121Z,517.50
2019-04-26T10:55:46.564Z,517.50
2019-04-26T10:56:45.077Z,523.13
2019-04-26T10:57:45.060Z,528.75
2019-04-26T10:58:45.042Z,528.75
2019-04-26T10:59:45.560Z,523.13
2019-04-26T11:00:48.492Z,517.50
2019-04-26T11:01:44.978Z,517.50
2019-04-26T11:02:44.958Z,511.88
2019-04-26T11:03:44.943Z,511.88
2019-04-26T11:04:44.922Z,500.63
2019-04-26T11:05:44.902Z,483.75
2019-04-26T11:06:44.882Z,461.25
2019-04-26T11:07:44.879Z,489.38
2019-04-26T11:08:44.846Z,506.25
2019-04-26T11:09:44.825Z,523.13
2019-04-26T11:10:48.726Z,540.00
2019-04-26T11:11:44.787Z,556.88
2019-04-26T11:12:44.847Z,568.13
2019-04-26T11:13:44.752Z,579.38
2019-04-26T11:14:44.733Z,579.38
2019-04-26T11:15:44.717Z,585.00
2019-04-26T11:16:44.707Z,579.38
2019-04-26T11:17:46.087Z,562.50
2019-04-26T11:18:44.659Z,540.00
2019-04-26T11:19:44.642Z,517.50
2019-04-26T11:20:45.584Z,495.00
2019-04-26T11:21:44.609Z,466.88
2019-04-26T11:22:44.584Z,433.13
2019-04-26T11:23:45.409Z,405.00
2019-04-26T11:24:44.542Z,393.75
2019-04-26T11:25:44.517Z,382.50
2019-04-26T11:26:44.498Z,376.88
2019-04-26T11:27:48.492Z,376.88
2019-04-26T11:28:44.460Z,382.50
2019-04-26T11:29:53.218Z,388.13
2019-04-26T11:30:44.445Z,405.00
2019-04-26T11:31:44.400Z,416.25
2019-04-26T11:32:45.751Z,433.13
2019-04-26T11:33:45.198Z,450.00
2019-04-26T11:34:44.360Z,472.50
2019-04-26T11:35:44.331Z,489.38
2019-04-26T11:36:44.351Z,511.88
2019-04-26T11:37:46.278Z,528.75
2019-04-26T11:38:44.282Z,545.63
2019-04-26T11:39:44.247Z,551.25
2019-04-26T11:40:48.253Z,545.63
2019-04-26T11:41:44.207Z,517.50
2019-04-26T11:42:45.643Z,450.00
2019-04-26T11:43:44.172Z,371.25
2019-04-26T11:44:44.629Z,343.13
2019-04-26T11:45:45.435Z,371.25
2019-04-26T11:46:45.246Z,427.50
2019-04-26T11:47:55.412Z,483.75
2019-04-26T11:48:44.101Z,517.50
2019-04-26T11:49:44.052Z,545.63
2019-04-26T11:50:44.033Z,556.88
2019-04-26T11:51:44.012Z,562.50
2019-04-26T11:52:43.992Z,551.25
2019-04-26T11:53:44.700Z,500.63
2019-04-26T11:54:43.953Z,450.00
2019-04-26T11:55:43.934Z,399.38
2019-04-26T11:56:43.921Z,337.50
2019-04-26T11:57:47.395Z,286.88
2019-04-26T11:58:43.902Z,247.50
2019-04-26T11:59:43.864Z,219.38
2019-04-26T12:00:43.840Z,208.13
2019-04-26T12:01:43.818Z,208.13
2019-04-26T12:02:46.283Z,213.75
2019-04-26T12:03:43.796Z,225.00
2019-04-26T12:04:43.780Z,247.50
2019-04-26T12:05:43.742Z,264.38
2019-04-26T12:06:43.726Z,298.13
2019-04-26T12:07:43.703Z,326.25
2019-04-26T12:08:43.684Z,376.88
2019-04-26T12:09:43.665Z,450.00
2019-04-26T12:10:44.482Z,478.13
2019-04-26T12:11:50.887Z,466.88
2019-04-26T12:12:47.077Z,495.00
2019-04-26T12:13:43.584Z,489.38
2019-04-26T12:14:43.571Z,483.75
2019-04-26T12:15:45.251Z,455.63
2019-04-26T12:16:49.524Z,427.50
2019-04-26T12:17:43.508Z,416.25
2019-04-26T12:18:44.151Z,444.38
2019-04-26T12:19:43.469Z,523.13
2019-04-26T12:20:43.453Z,641.25
2019-04-26T12:21:43.430Z,646.88
2019-04-26T12:22:44.464Z,658.13
2019-04-26T12:23:43.392Z,618.75
2019-04-26T12:24:43.379Z,607.50
2019-04-26T12:25:47.918Z,669.38
2019-04-26T12:26:46.244Z,697.50
2019-04-26T12:27:43.377Z,736.88
2019-04-26T12:28:43.296Z,731.25
2019-04-26T12:29:44.163Z,703.13
2019-04-26T12:30:43.264Z,663.75
2019-04-26T12:31:43.250Z,669.38
2019-04-26T12:32:43.227Z,641.25
2019-04-26T12:33:43.973Z,635.63
2019-04-26T12:34:43.234Z,691.88
2019-04-26T12:35:43.202Z,736.88
2019-04-26T12:36:43.153Z,759.38
2019-04-26T12:37:43.128Z,787.50
2019-04-26T12:38:43.109Z,821.25
2019-04-26T12:39:43.093Z,883.13
2019-04-26T12:40:46.266Z,945.00
2019-04-26T12:41:43.055Z,1006.88
2019-04-26T12:42:43.425Z,1085.63
2019-04-26T12:43:43.026Z,1091.25
2019-04-26T12:44:43.013Z,1074.38
2019-04-26T12:45:42.997Z,1051.88
2019-04-26T12:46:42.979Z,1012.50
2019-04-26T12:47:42.978Z,984.38